createdAt,value
2023-04-17T00:00:08.039Z,98894.29
2023-04-17T00:03:28.434Z,98888.88
2023-04-17T00:06:45.595Z,98891.17
2023-04-17T00:10:02.196Z,98890.48
2023-04-17T00:13:18.945Z,98887.63
2023-04-17T00:16:37.847Z,98895.18
2023-04-17T00:19:55.126Z,98890.78
2023-04-17T00:23:11.545Z,98890.27
2023-04-17T00:26:27.840Z,98881.48
2023-04-17T00:29:44.394Z,98881.87
2023-04-17T00:33:00.859Z,98882.34
2023-04-17T00:36:18.867Z,98889.09
2023-04-17T00:39:37.687Z,98886.75
2023-04-17T00:42:56.954Z,98884.60
2023-04-17T00:46:14.093Z,98888.58
2023-04-17T00:49:31.803Z,98884.08
2023-04-17T00:52:48.633Z,98888.98
2023-04-17T00:56:08.998Z,98888.28
2023-04-17T00:59:27.356Z,98886.30
2023-04-17T01:02:44.682Z,98885.48
2023-04-17T01:06:02.215Z,98882.78
2023-04-17T01:09:19.819Z,98889.52
2023-04-17T01:12:36.938Z,98889.88
2023-04-17T01:15:53.938Z,98884.95
2023-04-17T01:19:11.276Z,98893.06
2023-04-17T01:22:30.760Z,98889.39
2023-04-17T01:25:48.112Z,98886.30
2023-04-17T01:29:06.577Z,98892.25
2023-04-17T01:32:24.507Z,98889.55
2023-04-17T01:35:41.398Z,98890.69
2023-04-17T01:38:57.765Z,98877.77
2023-04-17T01:42:14.822Z,98871.81
2023-04-17T01:45:33.318Z,98871.36
2023-04-17T01:48:50.342Z,98868.56
2023-04-17T01:52:07.245Z,98869.34
2023-04-17T01:55:23.934Z,98869.86
2023-04-17T01:58:40.937Z,98873.99
2023-04-17T02:01:58.178Z,98872.13
2023-04-17T02:05:15.704Z,98878.55
2023-04-17T02:08:34.970Z,98891.40
2023-04-17T02:11:53.865Z,98894.52
2023-04-17T02:15:10.856Z,98897.65
2023-04-17T02:18:27.434Z,98889.97
2023-04-17T02:21:45.037Z,98891.05
2023-04-17T02:25:01.774Z,98893.64
2023-04-17T02:28:18.398Z,98900.44
2023-04-17T02:31:34.828Z,98886.62
2023-04-17T02:34:53.346Z,98893.77
2023-04-17T02:38:12.418Z,98896.08
2023-04-17T02:41:40.365Z,98889.66
2023-04-17T02:44:58.395Z,98895.09
2023-04-17T02:48:16.013Z,98892.97
2023-04-17T02:51:32.641Z,98898.94
2023-04-17T02:54:49.460Z,98897.63
2023-04-17T02:58:05.962Z,98892.80
2023-04-17T03:01:23.747Z,98899.16
2023-04-17T03:04:40.713Z,98907.25
2023-04-17T03:07:58.401Z,98909.08
2023-04-17T03:11:17.729Z,98914.40
2023-04-17T03:14:34.129Z,98912.06
2023-04-17T03:17:53.082Z,98917.69
2023-04-17T03:21:09.654Z,98915.55
2023-04-17T03:24:26.259Z,98918.05
2023-04-17T03:27:44.559Z,98924.33
2023-04-17T03:31:02.885Z,98918.56
2023-04-17T03:34:21.127Z,98917.92
2023-04-17T03:37:38.375Z,98918.25
2023-04-17T03:40:55.212Z,98918.93
2023-04-17T03:44:13.542Z,98926.85
2023-04-17T03:47:30.570Z,98929.02
2023-04-17T03:50:49.198Z,98939.11
2023-04-17T03:54:07.185Z,98941.59
2023-04-17T03:57:24.127Z,98945.10
2023-04-17T04:00:41.771Z,98938.81
2023-04-17T04:03:58.841Z,98944.29
2023-04-17T04:07:18.045Z,98942.28
2023-04-17T04:10:36.970Z,98936.86
2023-04-17T04:13:55.506Z,98936.51
2023-04-17T04:17:12.021Z,98949.88
2023-04-17T04:20:29.268Z,98952.88
2023-04-17T04:23:48.782Z,98954.36
2023-04-17T04:27:05.477Z,98954.86
2023-04-17T04:30:26.361Z,98952.38
2023-04-17T04:33:47.026Z,98957.01
2023-04-17T04:37:09.384Z,98960.30
2023-04-17T04:40:27.996Z,98956.16
2023-04-17T04:44:01.147Z,98953.87
2023-04-17T04:47:28.181Z,98950.73
2023-04-17T04:51:19.771Z,98951.54
2023-04-17T04:54:39.119Z,98961.30
2023-04-17T04:58:02.576Z,98952.88
2023-04-17T05:01:19.523Z,98959.64
2023-04-17T05:04:40.712Z,98965.28
2023-04-17T05:07:59.233Z,98956.02
2023-04-17T05:11:24.144Z,98956.19
2023-04-17T05:14:44.986Z,98956.16
2023-04-17T05:18:05.270Z,98955.84
2023-04-17T05:21:30.998Z,98946.58
2023-04-17T05:24:49.427Z,98956.98
2023-04-17T05:28:07.438Z,98956.64
2023-04-17T05:31:36.061Z,98960.09
2023-04-17T05:34:55.762Z,98961.75
2023-04-17T05:38:32.717Z,98960.72
2023-04-17T05:41:51.884Z,98968.83
2023-04-17T05:45:48.911Z,98973.27
2023-04-17T05:49:08.261Z,98982.88
2023-04-17T05:52:27.323Z,98980.72
2023-04-17T05:55:47.757Z,98982.34
2023-04-17T05:59:04.714Z,98983.67
2023-04-17T06:02:25.143Z,98979.37
2023-04-17T06:05:48.379Z,98987.14
2023-04-17T06:09:06.958Z,98985.83
2023-04-17T06:12:23.315Z,98990.45
2023-04-17T06:15:40.450Z,98982.99
2023-04-17T06:18:59.703Z,98987.13
2023-04-17T06:22:17.392Z,98991.91
2023-04-17T06:25:34.667Z,99003.98
2023-04-17T06:28:51.353Z,98999.00
2023-04-17T06:32:08.195Z,98994.88
2023-04-17T06:35:26.474Z,98992.73
2023-04-17T06:38:44.808Z,99000.80
2023-04-17T06:42:12.353Z,99008.25
2023-04-17T06:45:29.725Z,99011.89
2023-04-17T06:48:46.447Z,99014.70
2023-04-17T06:52:03.756Z,99013.67
2023-04-17T06:55:25.604Z,99008.86
2023-04-17T06:58:45.150Z,99011.36
2023-04-17T07:01:59.670Z,99005.70
2023-04-17T07:05:18.566Z,99013.78
2023-04-17T07:08:35.125Z,99014.11
2023-04-17T07:11:51.520Z,99020.89
2023-04-17T07:15:07.894Z,99011.91
2023-04-17T07:18:24.422Z,99016.70
2023-04-17T07:21:40.781Z,99010.59
2023-04-17T07:24:57.140Z,99009.92
2023-04-17T07:28:13.749Z,99009.27
2023-04-17T07:31:30.297Z,99012.73
2023-04-17T07:34:48.484Z,99019.50
2023-04-17T07:38:05.383Z,99027.58
2023-04-17T07:41:22.249Z,99023.41
2023-04-17T07:44:38.877Z,99021.91
2023-04-17T07:47:57.534Z,99033.66
2023-04-17T07:51:14.394Z,99028.83
2023-04-17T07:54:33.389Z,99029.97
2023-04-17T07:57:52.036Z,99035.61
2023-04-17T08:01:10.478Z,99030.59
2023-04-17T08:04:28.916Z,99026.17
2023-04-17T08:07:46.165Z,99033.95
2023-04-17T08:11:02.820Z,99037.89
2023-04-17T08:14:21.370Z,99043.02
2023-04-17T08:17:37.696Z,99048.80
2023-04-17T08:20:54.773Z,99037.19
2023-04-17T08:24:11.759Z,99043.02
2023-04-17T08:27:32.893Z,99049.97
2023-04-17T08:30:52.948Z,99048.50
2023-04-17T08:34:15.094Z,99043.02
2023-04-17T08:37:31.962Z,99049.16
2023-04-17T08:40:53.915Z,99052.63
2023-04-17T08:44:12.057Z,99053.63
2023-04-17T08:47:29.134Z,99058.45
2023-04-17T08:50:46.238Z,99047.79
2023-04-17T08:54:03.492Z,99047.94
2023-04-17T08:57:19.828Z,99057.37
2023-04-17T09:00:39.671Z,99054.87
2023-04-17T09:03:58.229Z,99055.50
2023-04-17T09:07:18.385Z,99059.14
2023-04-17T09:10:48.628Z,99054.17
2023-04-17T09:14:05.777Z,99054.32
2023-04-17T09:17:25.704Z,99050.49
2023-04-17T09:20:49.826Z,99052.99
2023-04-17T09:24:07.831Z,99049.45
2023-04-17T09:27:37.683Z,99056.05
2023-04-17T09:30:55.364Z,99057.19
2023-04-17T09:34:14.682Z,99060.32
2023-04-17T09:37:30.157Z,99060.14
2023-04-17T09:40:50.692Z,99057.00
2023-04-17T09:44:08.309Z,99060.80
2023-04-17T09:47:27.228Z,99057.59
2023-04-17T09:50:44.809Z,99062.01
2023-04-17T09:54:04.728Z,99068.45
2023-04-17T09:57:22.032Z,99062.80
2023-04-17T10:00:39.148Z,99066.27
2023-04-17T10:03:56.467Z,99069.20
2023-04-17T10:07:14.595Z,99065.84
2023-04-17T10:10:37.372Z,99056.98
2023-04-17T10:13:58.881Z,99065.08
2023-04-17T10:17:35.449Z,99061.05
2023-04-17T10:20:54.273Z,99057.14
2023-04-17T10:24:32.089Z,99058.23
2023-04-17T10:28:03.787Z,99057.23
2023-04-17T10:31:20.749Z,99051.56
2023-04-17T10:34:47.264Z,99057.23
2023-04-17T10:38:17.512Z,99058.50
2023-04-17T10:41:34.177Z,99055.84
2023-04-17T10:44:52.798Z,99052.73
2023-04-17T10:48:09.855Z,99050.17
2023-04-17T10:51:50.394Z,99053.83
2023-04-17T10:55:17.111Z,99058.48
2023-04-17T10:58:33.881Z,99048.89
2023-04-17T11:02:09.674Z,99052.36
2023-04-17T11:05:28.396Z,99057.39
2023-04-17T11:08:44.830Z,99062.41
2023-04-17T11:12:03.584Z,99055.45
2023-04-17T11:15:21.896Z,99066.54
2023-04-17T11:18:38.946Z,99061.52
2023-04-17T11:21:58.159Z,99064.36
2023-04-17T11:25:13.589Z,99059.30
2023-04-17T11:28:30.911Z,99054.52
2023-04-17T11:31:47.692Z,99062.48
2023-04-17T11:35:06.948Z,99060.82
2023-04-17T11:38:23.928Z,99065.03
2023-04-17T11:41:48.197Z,99060.34
2023-04-17T11:45:13.957Z,99063.19
2023-04-17T11:48:34.295Z,99062.00
2023-04-17T11:52:08.640Z,99063.19
2023-04-17T11:55:43.170Z,99058.69
2023-04-17T11:59:07.020Z,99055.13
2023-04-17T12:02:31.326Z,99056.59
2023-04-17T12:05:51.287Z,99060.25
2023-04-17T12:09:10.519Z,99060.20
2023-04-17T12:12:33.665Z,99052.52
2023-04-17T12:34:22.911Z,99058.88
2023-04-17T12:37:41.966Z,99057.06
2023-04-17T12:41:08.308Z,99058.59
2023-04-17T12:44:33.949Z,99056.94
2023-04-17T12:47:50.980Z,99060.14
2023-04-17T12:51:08.256Z,99052.42
2023-04-17T12:54:25.984Z,99048.63
2023-04-17T12:57:43.211Z,99056.12
2023-04-17T13:00:59.996Z,99044.17
2023-04-17T13:04:17.164Z,99050.29
2023-04-17T13:07:34.496Z,99052.66
2023-04-17T13:10:51.646Z,99041.56
2023-04-17T13:14:10.118Z,99045.03
2023-04-17T13:17:27.057Z,99035.78
2023-04-17T13:20:44.123Z,99041.91
2023-04-17T13:24:01.775Z,99040.57
2023-04-17T13:27:21.385Z,99046.16
2023-04-17T13:30:51.515Z,99038.55
2023-04-17T13:34:12.090Z,99034.08
2023-04-17T13:37:29.115Z,99042.67
2023-04-17T13:40:50.261Z,99043.85
2023-04-17T13:44:04.539Z,99038.20
2023-04-17T13:47:21.797Z,99036.36
2023-04-17T13:50:38.401Z,99042.14
2023-04-17T13:53:55.859Z,99038.86
2023-04-17T13:57:12.383Z,99041.05
2023-04-17T14:00:29.965Z,99036.21
2023-04-17T14:03:46.624Z,99037.07
2023-04-17T14:07:03.509Z,99035.73
2023-04-17T14:10:20.841Z,99039.09
2023-04-17T14:13:39.753Z,99042.75
2023-04-17T14:16:56.352Z,99039.25
2023-04-17T14:20:16.041Z,99040.57
2023-04-17T14:23:32.606Z,99035.59
2023-04-17T14:26:49.475Z,99035.41
2023-04-17T14:30:05.863Z,99027.30
2023-04-17T14:33:22.968Z,99033.42
2023-04-17T14:36:43.413Z,99035.59
2023-04-17T14:40:00.375Z,99028.95
2023-04-17T14:43:17.000Z,99039.80
2023-04-17T14:46:33.536Z,99032.59
2023-04-17T14:49:50.095Z,99029.82
2023-04-17T14:53:06.871Z,99022.68
2023-04-17T14:56:23.433Z,99023.67
2023-04-17T14:59:40.310Z,99028.98
2023-04-17T15:02:57.194Z,99039.66
2023-04-17T15:06:14.634Z,99030.52
2023-04-17T15:09:30.857Z,99028.56
2023-04-17T15:12:47.450Z,99027.06
2023-04-17T15:16:04.261Z,99031.38
2023-04-17T15:19:21.014Z,99030.05
2023-04-17T15:22:37.716Z,99034.35
2023-04-17T15:25:58.399Z,99025.41
2023-04-17T15:29:14.996Z,99026.55
2023-04-17T15:32:35.042Z,99025.07
2023-04-17T15:35:51.948Z,99025.07
2023-04-17T15:39:14.736Z,99035.17
2023-04-17T15:42:31.450Z,99027.21
2023-04-17T15:45:47.980Z,99025.07
2023-04-17T15:49:09.298Z,99031.52
2023-04-17T15:52:25.601Z,99035.70
2023-04-17T15:55:42.732Z,99031.88
2023-04-17T15:59:04.648Z,99033.88
2023-04-17T16:02:24.173Z,99031.04
2023-04-17T16:05:41.230Z,99035.53
2023-04-17T16:08:57.613Z,99018.14
2023-04-17T16:12:15.322Z,99033.20
2023-04-17T16:15:32.528Z,99035.05
2023-04-17T16:18:50.146Z,99029.75
2023-04-17T16:22:07.248Z,99031.58
2023-04-17T16:25:24.788Z,99034.23
2023-04-17T16:28:42.189Z,99035.86
2023-04-17T16:31:59.092Z,99032.21
2023-04-17T16:35:17.085Z,99032.21
2023-04-17T16:38:33.689Z,99042.00
2023-04-17T16:41:50.447Z,99047.48
2023-04-17T16:45:10.153Z,99051.13
2023-04-17T16:48:26.864Z,99049.98
2023-04-17T16:51:46.299Z,99061.27
2023-04-17T16:55:04.121Z,99055.16
2023-04-17T16:58:20.757Z,99057.15
2023-04-17T17:01:37.796Z,99057.33
2023-04-17T17:04:54.446Z,99057.33
2023-04-17T17:08:11.031Z,99064.47
2023-04-17T17:11:28.544Z,99059.48
2023-04-17T17:14:45.164Z,99057.83
2023-04-17T17:18:01.940Z,99064.48
2023-04-17T17:21:19.229Z,99068.79
2023-04-17T17:24:37.122Z,99066.31
2023-04-17T17:27:53.557Z,99071.63
2023-04-17T17:31:11.589Z,99067.31
2023-04-17T17:34:28.398Z,99066.77
2023-04-17T17:37:45.069Z,99071.44
2023-04-17T17:41:02.732Z,99075.41
2023-04-17T17:44:19.346Z,99080.07
2023-04-17T17:47:35.899Z,99079.76
2023-04-17T17:50:53.315Z,99079.58
2023-04-17T17:54:11.016Z,99086.72
2023-04-17T17:57:35.661Z,99085.70
2023-04-17T18:00:47.394Z,99092.69
2023-04-17T18:04:04.004Z,99089.70
2023-04-17T18:07:22.613Z,99101.14
2023-04-17T18:10:42.567Z,99112.41
2023-04-17T18:14:02.870Z,99112.09
2023-04-17T18:17:20.926Z,99108.45
2023-04-17T18:20:37.577Z,99115.55
2023-04-17T18:23:57.815Z,99110.25
2023-04-17T18:27:14.803Z,99104.28
2023-04-17T18:30:31.516Z,99113.08
2023-04-17T18:33:48.059Z,99121.02
2023-04-17T18:37:05.331Z,99108.95
2023-04-17T18:40:22.648Z,99105.31
2023-04-17T18:43:39.369Z,99112.09
2023-04-17T18:47:00.443Z,99105.98
2023-04-17T18:50:20.327Z,99102.98
2023-04-17T18:53:39.681Z,99098.67
2023-04-17T18:56:56.186Z,99101.32
2023-04-17T19:00:14.904Z,99104.14
2023-04-17T19:03:31.598Z,99099.34
2023-04-17T19:06:51.204Z,99102.17
2023-04-17T19:10:08.177Z,99101.35
2023-04-17T19:13:37.890Z,99102.34
2023-04-17T19:16:55.241Z,99101.49
2023-04-17T19:20:13.531Z,99105.66
2023-04-17T19:23:30.487Z,99102.52
2023-04-17T19:26:47.686Z,99097.36
2023-04-17T19:30:04.897Z,99103.33
2023-04-17T19:33:24.428Z,99103.50
2023-04-17T19:36:41.204Z,99100.01
2023-04-17T19:39:57.922Z,99090.76
2023-04-17T19:43:15.970Z,99091.42
2023-04-17T19:46:33.966Z,99090.93
2023-04-17T19:49:51.362Z,99089.27
2023-04-17T19:53:09.155Z,99089.77
2023-04-17T19:56:29.507Z,99091.57
2023-04-17T19:59:49.399Z,99082.00
2023-04-17T20:03:09.057Z,99086.97
2023-04-17T20:06:27.837Z,99086.48
2023-04-17T20:09:44.854Z,99082.17
2023-04-17T20:13:01.732Z,99081.19
2023-04-17T20:16:22.591Z,99083.33
2023-04-17T20:19:48.592Z,99087.78
2023-04-17T20:23:05.793Z,99079.52
2023-04-17T20:26:22.821Z,99080.02
2023-04-17T20:29:39.629Z,99091.41
2023-04-17T20:32:59.513Z,99084.80
2023-04-17T20:36:17.300Z,99084.98
2023-04-17T20:39:33.679Z,99077.05
2023-04-17T20:42:51.983Z,99085.66
2023-04-17T20:46:09.077Z,99083.00
2023-04-17T20:49:25.731Z,99080.50
2023-04-17T20:52:42.643Z,99083.00
2023-04-17T20:55:59.045Z,99083.00
2023-04-17T20:59:15.992Z,99088.30
2023-04-17T21:02:33.296Z,99088.30
2023-04-17T21:05:50.233Z,99097.41
2023-04-17T21:09:06.916Z,99079.34
2023-04-17T21:12:23.286Z,99091.59
2023-04-17T21:15:40.042Z,99088.94
2023-04-17T21:18:56.511Z,99081.84
2023-04-17T21:22:14.411Z,99082.66
2023-04-17T21:25:31.486Z,99081.84
2023-04-17T21:28:48.350Z,99086.30
2023-04-17T21:32:05.027Z,99076.55
2023-04-17T21:35:21.604Z,99075.53
2023-04-17T21:38:38.039Z,99077.86
2023-04-17T21:41:54.426Z,99080.34
2023-04-17T21:45:12.126Z,99077.19
2023-04-17T21:48:28.643Z,99077.19
2023-04-17T21:51:45.326Z,99079.02
2023-04-17T21:55:05.422Z,99076.55
2023-04-17T21:58:21.820Z,99074.55
2023-04-17T22:01:38.918Z,99072.89
2023-04-17T22:04:55.700Z,99072.89
2023-04-17T22:08:12.375Z,99077.54
2023-04-17T22:11:29.056Z,99078.35
2023-04-17T22:14:45.714Z,99068.92
2023-04-17T22:18:02.048Z,99076.23
2023-04-17T22:21:19.904Z,99083.15
2023-04-17T22:24:36.677Z,99072.73
2023-04-17T22:27:53.591Z,99076.05
2023-04-17T22:31:11.953Z,99078.03
2023-04-17T22:34:31.147Z,99075.38
2023-04-17T22:37:47.702Z,99078.03
2023-04-17T22:41:04.882Z,99079.69
2023-04-17T22:44:21.836Z,99074.39
2023-04-17T22:47:39.208Z,99080.00
2023-04-17T22:50:56.706Z,99077.70
2023-04-17T22:54:22.285Z,99076.72
2023-04-17T22:57:31.462Z,99075.87
2023-04-17T23:00:48.497Z,99075.05
2023-04-17T23:04:05.910Z,99078.52
2023-04-17T23:07:22.168Z,99082.19
2023-04-17T23:10:38.422Z,99082.19
2023-04-17T23:13:54.960Z,99074.23
2023-04-17T23:17:11.457Z,99076.72
2023-04-17T23:20:27.973Z,99074.06
2023-04-17T23:23:48.323Z,99070.44
2023-04-17T23:27:04.830Z,99067.12
2023-04-17T23:30:22.591Z,99062.32
2023-04-17T23:33:39.216Z,99059.50
2023-04-17T23:36:57.363Z,99062.32
2023-04-17T23:40:16.387Z,99057.70
2023-04-17T23:43:33.078Z,99060.48
2023-04-17T23:46:49.411Z,99064.97
2023-04-17T23:50:06.495Z,99060.48
2023-04-17T23:53:23.237Z,99061.48
2023-04-17T23:56:39.884Z,99061.34
2023-04-17T23:59:56.785Z,99059.50
